Time,TemperatureF,DewpointF,PressureIn,WindDirection,WindDirectionDegrees,WindSpeedMPH,WindSpeedGustMPH,Humidity,HourlyPrecipIn,Conditions,Clouds,dailyrainin,SoftwareType,DateUTC
2013-05-23 00:01:00,64.3,63.7,29.92,SE,126,0.0,1.0,98,0.00,,,0.27,HR-IXPWINDi_r2_v1.2.,2013-05-23 04:01:00,
2013-05-23 00:06:00,64.3,63.7,29.92,SE,126,0.0,1.0,98,0.00,,,0.00,HR-IXPWINDi_r2_v1.2.,2013-05-23 04:06:00,
2013-05-23 00:11:00,64.1,63.5,29.92,SE,126,0.0,0.0,98,0.00,,,0.00,HR-IXPWINDi_r2_v1.2.,2013-05-23 04:11:00,
2013-05-23 00:16:00,64.1,63.5,29.92,SE,126,0.0,0.0,98,0.00,,,0.00,HR-IXPWINDi_r2_v1.2.,2013-05-23 04:16:00,
2013-05-23 00:21:00,64.0,63.4,29.92,SE,126,0.0,0.0,98,0.00,,,0.00,HR-IXPWINDi_r2_v1.2.,2013-05-23 04:21:00,
2013-05-23 00:26:00,63.9,63.3,29.92,SE,126,0.0,0.0,98,0.00,,,0.00,HR-IXPWINDi_r2_v1.2.,2013-05-23 04:26:00,
2013-05-23 00:32:00,63.9,63.3,29.91,SE,126,0.0,0.0,98,0.00,,,0.00,HR-IXPWINDi_r2_v1.2.,2013-05-23 04:32:00,
2013-05-23 00:37:00,63.8,63.2,29.91,SE,126,0.0,1.0,98,0.00,,,0.00,HR-IXPWINDi_r2_v1.2.,2013-05-23 04:37:00,
2013-05-23 00:42:00,63.8,63.2,29.91,SE,126,0.0,1.0,98,0.00,,,0.00,HR-IXPWINDi_r2_v1.2.,2013-05-23 04:42:00,
2013-05-23 00:48:00,63.7,63.1,29.91,SE,126,0.0,0.0,98,0.00,,,0.00,HR-IXPWINDi_r2_v1.2.,2013-05-23 04:48:00,
2013-05-23 00:53:00,63.7,63.3,29.91,SE,126,0.0,0.0,99,0.00,,,0.00,HR-IXPWINDi_r2_v1.2.,2013-05-23 04:53:00,
2013-05-23 00:58:00,63.7,63.3,29.91,SE,126,0.0,1.0,99,0.00,,,0.00,HR-IXPWINDi_r2_v1.2.,2013-05-23 04:58:00,
2013-05-23 01:03:00,63.7,63.3,29.91,SE,126,0.0,1.0,99,0.00,,,0.00,HR-IXPWINDi_r2_v1.2.,2013-05-23 05:03:00,
2013-05-23 01:08:00,63.6,63.2,29.91,SE,126,0.0,1.0,99,0.00,,,0.00,HR-IXPWINDi_r2_v1.2.,2013-05-23 05:08:00,
2013-05-23 01:14:00,63.6,63.2,29.91,ESE,115,0.0,6.0,99,0.00,,,0.00,HR-IXPWINDi_r2_v1.2.,2013-05-23 05:14:00,
2013-05-23 01:19:00,63.6,63.2,29.91,ESE,115,1.0,6.0,99,0.00,,,0.00,HR-IXPWINDi_r2_v1.2.,2013-05-23 05:19:00,
2013-05-23 01:24:00,63.6,63.2,29.91,ESE,115,1.0,2.0,99,0.00,,,0.00,HR-IXPWINDi_r2_v1.2.,2013-05-23 05:24:00,
2013-05-23 01:29:00,63.6,63.2,29.91,ESE,115,0.0,2.0,99,0.00,,,0.00,HR-IXPWINDi_r2_v1.2.,2013-05-23 05:29:00,
2013-05-23 01:34:00,63.6,63.2,29.91,ESE,115,0.0,2.0,99,0.00,,,0.00,HR-IXPWINDi_r2_v1.2.,2013-05-23 05:34:00,
2013-05-23 01:39:00,63.6,63.2,29.91,ESE,115,0.0,0.0,99,0.00,,,0.00,HR-IXPWINDi_r2_v1.2.,2013-05-23 05:39:00,
2013-05-23 01:45:00,63.5,63.1,29.91,ESE,115,0.0,0.0,99,0.00,,,0.00,HR-IXPWINDi_r2_v1.2.,2013-05-23 05:45:00,
2013-05-23 01:50:00,63.5,63.1,29.91,ESE,115,0.0,1.0,99,0.00,,,0.00,HR-IXPWINDi_r2_v1.2.,2013-05-23 05:50:00,
2013-05-23 01:55:00,63.5,63.1,29.91,ESE,115,0.0,1.0,99,0.00,,,0.00,HR-IXPWINDi_r2_v1.2.,2013-05-23 05:55:00,
2013-05-23 02:00:00,63.5,63.1,29.91,ESE,115,0.0,2.0,99,0.00,,,0.00,HR-IXPWINDi_r2_v1.2.,2013-05-23 06:00:00,
2013-05-23 02:05:00,63.5,63.1,29.91,SE,129,0.0,2.0,99,0.00,,,0.01,HR-IXPWINDi_r2_v1.2.,2013-05-23 06:05:00,
2013-05-23 02:10:00,63.5,63.1,29.91,SE,129,0.0,1.0,99,0.00,,,0.01,HR-IXPWINDi_r2_v1.2.,2013-05-23 06:10:00,
2013-05-23 02:16:00,63.5,63.1,29.91,SE,129,0.0,0.0,99,0.00,,,0.01,HR-IXPWINDi_r2_v1.2.,2013-05-23 06:16:00,
2013-05-23 02:21:00,63.5,63.1,29.91,SE,129,0.0,0.0,99,0.00,,,0.01,HR-IXPWINDi_r2_v1.2.,2013-05-23 06:21:00,
2013-05-23 02:26:00,63.4,63.0,29.91,SE,129,0.0,2.0,99,0.00,,,0.01,HR-IXPWINDi_r2_v1.2.,2013-05-23 06:26:00,
2013-05-23 02:31:00,63.4,63.0,29.91,SE,129,0.0,2.0,99,0.00,,,0.01,HR-IXPWINDi_r2_v1.2.,2013-05-23 06:31:00,
2013-05-23 02:36:00,63.3,62.7,29.91,SE,129,0.0,1.0,98,0.00,,,0.01,HR-IXPWINDi_r2_v1.2.,2013-05-23 06:36:00,
2013-05-23 02:41:00,63.2,62.6,29.90,SE,129,0.0,0.0,98,0.00,,,0.01,HR-IXPWINDi_r2_v1.2.,2013-05-23 06:41:00,
2013-05-23 02:46:00,63.2,62.8,29.90,SE,129,0.0,0.0,99,0.00,,,0.01,HR-IXPWINDi_r2_v1.2.,2013-05-23 06:46:00,
2013-05-23 02:52:00,63.1,62.7,29.91,SE,129,1.0,1.0,99,0.00,,,0.01,HR-IXPWINDi_r2_v1.2.,2013-05-23 06:52:00,
2013-05-23 02:57:00,62.9,62.5,29.91,SE,129,0.0,1.0,99,0.00,,,0.01,HR-IXPWINDi_r2_v1.2.,2013-05-23 06:57:00,
2013-05-23 03:02:00,62.8,62.4,29.91,SE,129,0.0,0.0,99,0.00,,,0.01,HR-IXPWINDi_r2_v1.2.,2013-05-23 07:02:00,
2013-05-23 03:07:00,62.7,62.1,29.90,SE,129,0.0,0.0,98,0.00,,,0.01,HR-IXPWINDi_r2_v1.2.,2013-05-23 07:07:00,
2013-05-23 03:13:00,62.6,62.0,29.90,SE,129,0.0,1.0,98,0.00,,,0.01,HR-IXPWINDi_r2_v1.2.,2013-05-23 07:13:00,
2013-05-23 03:18:00,62.5,61.9,29.90,SE,129,0.0,1.0,98,0.00,,,0.01,HR-IXPWINDi_r2_v1.2.,2013-05-23 07:18:00,
2013-05-23 03:23:00,62.5,61.9,29.90,SE,129,0.0,1.0,98,0.00,,,0.01,HR-IXPWINDi_r2_v1.2.,2013-05-23 07:23:00,
2013-05-23 03:28:00,62.4,62.0,29.90,SE,129,0.0,0.0,99,0.00,,,0.01,HR-IXPWINDi_r2_v1.2.,2013-05-23 07:28:00,
2013-05-23 03:33:00,62.3,61.9,29.90,SE,129,0.0,0.0,99,0.00,,,0.01,HR-IXPWINDi_r2_v1.2.,2013-05-23 07:33:00,
2013-05-23 03:38:00,62.3,61.9,29.90,SE,129,0.0,0.0,99,0.00,,,0.01,HR-IXPWINDi_r2_v1.2.,2013-05-23 07:38:00,
2013-05-23 03:44:00,62.2,61.8,29.90,SE,129,0.0,0.0,99,0.00,,,0.01,HR-IXPWINDi_r2_v1.2.,2013-05-23 07:44:00,
2013-05-23 03:49:00,62.2,61.6,29.90,SE,129,0.0,0.0,98,0.00,,,0.01,HR-IXPWINDi_r2_v1.2.,2013-05-23 07:49:00,
2013-05-23 03:54:00,62.2,61.6,29.90,SE,129,0.0,0.0,98,0.00,,,0.01,HR-IXPWINDi_r2_v1.2.,2013-05-23 07:54:00,
2013-05-23 04:00:00,62.2,61.6,29.90,SE,129,0.0,0.0,98,0.00,,,0.01,HR-IXPWINDi_r2_v1.2.,2013-05-23 08:00:00,
2013-05-23 04:05:00,62.2,61.6,29.90,SE,129,0.0,0.0,98,0.00,,,0.01,HR-IXPWINDi_r2_v1.2.,2013-05-23 08:05:00,
2013-05-23 04:10:00,62.1,61.5,29.90,SE,129,0.0,0.0,98,0.00,,,0.01,HR-IXPWINDi_r2_v1.2.,2013-05-23 08:10:00,
2013-05-23 04:15:00,62.2,61.8,29.90,SE,129,0.0,0.0,99,0.00,,,0.01,HR-IXPWINDi_r2_v1.2.,2013-05-23 08:15:00,
2013-05-23 04:21:00,62.2,61.8,29.91,SE,129,0.0,0.0,99,0.00,,,0.01,HR-IXPWINDi_r2_v1.2.,2013-05-23 08:21:00,
2013-05-23 04:26:00,62.2,61.8,29.91,SE,129,0.0,0.0,99,0.00,,,0.01,HR-IXPWINDi_r2_v1.2.,2013-05-23 08:26:00,
2013-05-23 04:31:00,62.2,61.8,29.91,SE,129,0.0,0.0,99,0.00,,,0.01,HR-IXPWINDi_r2_v1.2.,2013-05-23 08:31:00,
2013-05-23 04:36:00,62.2,61.8,29.91,SE,129,0.0,0.0,99,0.00,,,0.01,HR-IXPWINDi_r2_v1.2.,2013-05-23 08:36:00,
2013-05-23 04:41:00,62.3,61.9,29.91,SE,129,0.0,0.0,99,0.00,,,0.01,HR-IXPWINDi_r2_v1.2.,2013-05-23 08:41:00,
2013-05-23 04:46:00,62.3,61.9,29.91,SE,129,0.0,0.0,99,0.00,,,0.01,HR-IXPWINDi_r2_v1.2.,2013-05-23 08:46:00,
2013-05-23 04:52:00,62.3,61.9,29.91,SE,129,0.0,0.0,99,0.00,,,0.01,HR-IXPWINDi_r2_v1.2.,2013-05-23 08:52:00,
2013-05-23 04:56:00,62.4,62.0,29.91,SE,129,0.0,0.0,99,0.00,,,0.01,HR-IXPWINDi_r2_v1.2.,2013-05-23 08:56:00,
2013-05-23 05:01:00,62.4,62.0,29.91,SE,129,0.0,0.0,99,0.00,,,0.01,HR-IXPWINDi_r2_v1.2.,2013-05-23 09:01:00,
2013-05-23 05:07:00,62.5,62.1,29.91,SE,129,0.0,0.0,99,0.00,,,0.01,HR-IXPWINDi_r2_v1.2.,2013-05-23 09:07:00,
2013-05-23 05:12:00,62.5,62.1,29.91,SE,129,0.0,0.0,99,0.00,,,0.01,HR-IXPWINDi_r2_v1.2.,2013-05-23 09:12:00,
2013-05-23 05:17:00,62.5,62.1,29.91,SE,129,0.0,0.0,99,0.00,,,0.01,HR-IXPWINDi_r2_v1.2.,2013-05-23 09:17:00,
2013-05-23 05:22:00,62.5,62.1,29.91,SE,129,0.0,0.0,99,0.00,,,0.01,HR-IXPWINDi_r2_v1.2.,2013-05-23 09:22:00,
2013-05-23 05:27:00,62.5,62.1,29.91,SE,129,0.0,0.0,99,0.00,,,0.01,HR-IXPWINDi_r2_v1.2.,2013-05-23 09:27:00,
2013-05-23 05:33:00,62.6,62.2,29.91,SE,129,0.0,0.0,99,0.00,,,0.01,HR-IXPWINDi_r2_v1.2.,2013-05-23 09:33:00,
2013-05-23 05:38:00,62.6,62.2,29.91,SE,129,0.0,0.0,99,0.00,,,0.01,HR-IXPWINDi_r2_v1.2.,2013-05-23 09:38:00,
2013-05-23 05:43:00,62.5,62.1,29.91,SE,129,0.0,0.0,99,0.00,,,0.01,HR-IXPWINDi_r2_v1.2.,2013-05-23 09:43:00,
2013-05-23 05:48:00,62.5,62.1,29.91,SE,129,0.0,0.0,99,0.00,,,0.01,HR-IXPWINDi_r2_v1.2.,2013-05-23 09:48:00,
2013-05-23 05:53:00,62.5,62.1,29.91,SE,129,0.0,0.0,99,0.00,,,0.01,HR-IXPWINDi_r2_v1.2.,2013-05-23 09:53:00,
2013-05-23 05:58:00,62.4,62.0,29.91,SE,129,0.0,0.0,99,0.00,,,0.01,HR-IXPWINDi_r2_v1.2.,2013-05-23 09:58:00,
2013-05-23 06:04:00,62.4,62.0,29.91,SE,129,0.0,0.0,99,0.00,,,0.01,HR-IXPWINDi_r2_v1.2.,2013-05-23 10:04:00,
2013-05-23 06:09:00,62.3,61.9,29.91,SE,129,0.0,0.0,99,0.00,,,0.01,HR-IXPWINDi_r2_v1.2.,2013-05-23 10:09:00,
2013-05-23 06:14:00,62.3,61.9,29.91,SE,129,0.0,0.0,99,0.00,,,0.01,HR-IXPWINDi_r2_v1.2.,2013-05-23 10:14:00,
2013-05-23 06:19:00,62.3,61.9,29.91,SE,129,0.0,0.0,99,0.00,,,0.01,HR-IXPWINDi_r2_v1.2.,2013-05-23 10:19:00,
2013-05-23 06:24:00,62.2,61.8,29.91,SE,129,0.0,0.0,99,0.00,,,0.01,HR-IXPWINDi_r2_v1.2.,2013-05-23 10:24:00,
2013-05-23 06:30:00,62.3,61.9,29.91,SE,129,0.0,0.0,99,0.00,,,0.01,HR-IXPWINDi_r2_v1.2.,2013-05-23 10:30:00,
2013-05-23 06:35:00,62.3,61.9,29.91,SE,129,0.0,0.0,99,0.00,,,0.01,HR-IXPWINDi_r2_v1.2.,2013-05-23 10:35:00,
2013-05-23 06:40:00,62.3,61.9,29.91,SE,129,0.0,0.0,99,0.00,,,0.01,HR-IXPWINDi_r2_v1.2.,2013-05-23 10:40:00,
2013-05-23 06:45:00,62.3,61.9,29.91,SE,129,0.0,0.0,99,0.00,,,0.01,HR-IXPWINDi_r2_v1.2.,2013-05-23 10:45:00,
2013-05-23 06:50:00,62.4,62.0,29.92,SE,129,2.0,2.0,99,0.00,,,0.01,HR-IXPWINDi_r2_v1.2.,2013-05-23 10:50:00,
2013-05-23 06:55:00,62.4,62.0,29.93,SE,129,0.0,2.0,99,0.00,,,0.01,HR-IXPWINDi_r2_v1.2.,2013-05-23 10:55:00,
2013-05-23 07:00:00,62.5,62.1,29.93,SE,129,0.0,2.0,99,0.00,,,0.01,HR-IXPWINDi_r2_v1.2.,2013-05-23 11:00:00,
2013-05-23 07:05:00,62.6,62.2,29.92,SE,129,0.0,1.0,99,0.00,,,0.01,HR-IXPWINDi_r2_v1.2.,2013-05-23 11:05:00,
2013-05-23 07:10:00,62.7,62.3,29.92,SE,129,0.0,0.0,99,0.00,,,0.01,HR-IXPWINDi_r2_v1.2.,2013-05-23 11:10:00,
2013-05-23 07:16:00,62.8,62.4,29.92,SE,129,0.0,0.0,99,0.00,,,0.01,HR-IXPWINDi_r2_v1.2.,2013-05-23 11:16:00,
2013-05-23 07:21:00,62.8,62.4,29.92,SE,129,0.0,0.0,99,0.00,,,0.01,HR-IXPWINDi_r2_v1.2.,2013-05-23 11:21:00,
2013-05-23 07:26:00,62.9,62.5,29.92,SE,129,0.0,0.0,99,0.00,,,0.01,HR-IXPWINDi_r2_v1.2.,2013-05-23 11:26:00,
2013-05-23 07:31:00,62.9,62.5,29.92,SE,129,0.0,0.0,99,0.00,,,0.01,HR-IXPWINDi_r2_v1.2.,2013-05-23 11:31:00,
2013-05-23 07:36:00,63.1,62.7,29.92,SE,129,0.0,0.0,99,0.00,,,0.01,HR-IXPWINDi_r2_v1.2.,2013-05-23 11:36:00,
2013-05-23 07:41:00,63.2,62.8,29.92,SE,129,0.0,0.0,99,0.00,,,0.01,HR-IXPWINDi_r2_v1.2.,2013-05-23 11:41:00,
2013-05-23 07:47:00,63.3,62.9,29.92,SE,134,0.0,0.0,99,0.00,,,0.01,HR-IXPWINDi_r2_v1.2.,2013-05-23 11:47:00,
2013-05-23 07:52:00,63.3,62.9,29.92,SE,134,0.0,0.0,99,0.00,,,0.01,HR-IXPWINDi_r2_v1.2.,2013-05-23 11:52:00,
2013-05-23 07:57:00,63.4,63.0,29.92,SE,134,0.0,0.0,99,0.00,,,0.01,HR-IXPWINDi_r2_v1.2.,2013-05-23 11:57:00,
2013-05-23 08:02:00,63.5,63.1,29.92,SE,134,0.0,0.0,99,0.00,,,0.01,HR-IXPWINDi_r2_v1.2.,2013-05-23 12:02:00,
2013-05-23 08:07:00,63.8,63.4,29.92,SE,135,0.0,1.0,99,0.00,,,0.01,HR-IXPWINDi_r2_v1.2.,2013-05-23 12:07:00,
2013-05-23 08:13:00,63.8,63.4,29.92,SE,135,0.0,1.0,99,0.00,,,0.01,HR-IXPWINDi_r2_v1.2.,2013-05-23 12:13:00,
2013-05-23 08:18:00,63.9,63.5,29.92,SE,135,0.0,1.0,99,0.00,,,0.01,HR-IXPWINDi_r2_v1.2.,2013-05-23 12:18:00,
2013-05-23 08:23:00,64.1,63.7,29.92,SE,135,0.0,0.0,99,0.00,,,0.01,HR-IXPWINDi_r2_v1.2.,2013-05-23 12:23:00,
2013-05-23 08:28:00,64.2,63.8,29.93,SE,135,0.0,0.0,99,0.00,,,0.01,HR-IXPWINDi_r2_v1.2.,2013-05-23 12:28:00,
2013-05-23 08:34:00,64.3,63.9,29.93,SE,135,0.0,0.0,99,0.00,,,0.01,HR-IXPWINDi_r2_v1.2.,2013-05-23 12:34:00,
2013-05-23 08:39:00,64.4,64.0,29.92,SE,135,0.0,0.0,99,0.00,,,0.01,HR-IXPWINDi_r2_v1.2.,2013-05-23 12:39:00,
2013-05-23 08:44:00,64.5,64.1,29.92,SE,135,0.0,0.0,99,0.00,,,0.01,HR-IXPWINDi_r2_v1.2.,2013-05-23 12:44:00,
2013-05-23 08:49:00,64.7,64.3,29.92,SE,135,0.0,0.0,99,0.00,,,0.01,HR-IXPWINDi_r2_v1.2.,2013-05-23 12:49:00,
2013-05-23 08:54:00,64.8,64.4,29.92,SE,135,0.0,0.0,99,0.00,,,0.01,HR-IXPWINDi_r2_v1.2.,2013-05-23 12:54:00,
2013-05-23 08:59:00,64.9,64.5,29.92,SE,135,0.0,0.0,99,0.00,,,0.01,HR-IXPWINDi_r2_v1.2.,2013-05-23 12:59:00,
2013-05-23 09:04:00,64.7,64.3,29.92,SE,135,0.0,2.0,99,0.00,,,0.01,HR-IXPWINDi_r2_v1.2.,2013-05-23 13:04:00,
2013-05-23 09:09:00,64.5,64.1,29.92,ENE,76,1.0,2.0,99,0.00,,,0.01,HR-IXPWINDi_r2_v1.2.,2013-05-23 13:09:00,
2013-05-23 09:14:00,64.6,64.2,29.92,NE,55,0.0,2.0,99,0.00,,,0.01,HR-IXPWINDi_r2_v1.2.,2013-05-23 13:14:00,
2013-05-23 09:20:00,64.7,64.1,29.92,NE,54,0.0,3.0,98,0.00,,,0.01,HR-IXPWINDi_r2_v1.2.,2013-05-23 13:20:00,
2013-05-23 09:25:00,65.0,64.4,29.92,ENE,59,0.0,3.0,98,0.00,,,0.01,HR-IXPWINDi_r2_v1.2.,2013-05-23 13:25:00,
2013-05-23 09:30:00,65.4,64.8,29.92,SSE,165,2.0,2.0,98,0.00,,,0.01,HR-IXPWINDi_r2_v1.2.,2013-05-23 13:30:00,
2013-05-23 09:36:00,65.8,65.2,29.92,SSE,155,0.0,2.0,98,0.00,,,0.01,HR-IXPWINDi_r2_v1.2.,2013-05-23 13:36:00,
2013-05-23 09:41:00,66.0,64.8,29.92,SSE,159,0.0,2.0,96,0.00,,,0.01,HR-IXPWINDi_r2_v1.2.,2013-05-23 13:41:00,
2013-05-23 09:46:00,66.5,65.0,29.92,SSE,159,0.0,2.0,95,0.00,,,0.01,HR-IXPWINDi_r2_v1.2.,2013-05-23 13:46:00,
2013-05-23 09:51:00,67.1,65.6,29.92,SSE,156,2.0,2.0,95,0.00,,,0.01,HR-IXPWINDi_r2_v1.2.,2013-05-23 13:51:00,
2013-05-23 09:56:00,67.6,65.4,29.91,SE,139,0.0,2.0,93,0.00,,,0.01,HR-IXPWINDi_r2_v1.2.,2013-05-23 13:56:00,
2013-05-23 10:01:00,68.0,65.5,29.91,SSE,149,0.0,6.0,92,0.00,,,0.01,HR-IXPWINDi_r2_v1.2.,2013-05-23 14:01:00,
2013-05-23 10:06:00,68.5,65.4,29.91,SE,141,0.0,6.0,90,0.00,,,0.01,HR-IXPWINDi_r2_v1.2.,2013-05-23 14:06:00,
2013-05-23 10:11:00,68.9,65.8,29.91,SSE,165,2.0,5.0,90,0.00,,,0.01,HR-IXPWINDi_r2_v1.2.,2013-05-23 14:11:00,
2013-05-23 10:17:00,69.1,66.3,29.91,SSW,198,0.0,5.0,91,0.00,,,0.01,HR-IXPWINDi_r2_v1.2.,2013-05-23 14:17:00,
2013-05-23 10:22:00,69.2,66.7,29.91,SSW,198,1.0,4.0,92,0.00,,,0.01,HR-IXPWINDi_r2_v1.2.,2013-05-23 14:22:00,
2013-05-23 10:27:00,69.2,66.1,29.91,SSE,148,0.0,2.0,90,0.00,,,0.01,HR-IXPWINDi_r2_v1.2.,2013-05-23 14:27:00,
2013-05-23 10:32:00,69.3,66.5,29.91,SE,143,0.0,2.0,91,0.00,,,0.01,HR-IXPWINDi_r2_v1.2.,2013-05-23 14:32:00,
2013-05-23 10:37:00,70.0,67.8,29.91,SSE,147,0.0,2.0,93,0.00,,,0.01,HR-IXPWINDi_r2_v1.2.,2013-05-23 14:37:00,
2013-05-23 10:42:00,70.9,68.1,29.91,SSE,148,0.0,2.0,91,0.00,,,0.01,HR-IXPWINDi_r2_v1.2.,2013-05-23 14:42:00,
2013-05-23 10:47:00,71.1,67.0,29.91,SE,127,0.0,3.0,87,0.00,,,0.01,HR-IXPWINDi_r2_v1.2.,2013-05-23 14:47:00,
2013-05-23 10:52:00,71.1,67.0,29.91,SSE,152,2.0,4.0,87,0.00,,,0.01,HR-IXPWINDi_r2_v1.2.,2013-05-23 14:52:00,
2013-05-23 10:58:00,71.0,66.2,29.91,SSE,155,0.0,7.0,85,0.00,,,0.01,HR-IXPWINDi_r2_v1.2.,2013-05-23 14:58:00,
2013-05-23 11:03:00,71.1,67.3,29.91,ESE,112,0.0,7.0,88,0.00,,,0.01,HR-IXPWINDi_r2_v1.2.,2013-05-23 15:03:00,
2013-05-23 11:08:00,71.3,66.8,29.91,South,182,0.0,3.0,86,0.00,,,0.01,HR-IXPWINDi_r2_v1.2.,2013-05-23 15:08:00,
2013-05-23 11:13:00,71.5,66.3,29.91,South,182,1.0,3.0,84,0.00,,,0.01,HR-IXPWINDi_r2_v1.2.,2013-05-23 15:13:00,
2013-05-23 11:19:00,71.8,67.0,29.91,South,182,0.0,2.0,85,0.00,,,0.01,HR-IXPWINDi_r2_v1.2.,2013-05-23 15:19:00,
2013-05-23 11:24:00,71.9,66.7,29.91,South,182,0.0,2.0,84,0.00,,,0.01,HR-IXPWINDi_r2_v1.2.,2013-05-23 15:24:00,
2013-05-23 11:29:00,72.1,66.9,29.91,SSE,162,3.0,4.0,84,0.00,,,0.01,HR-IXPWINDi_r2_v1.2.,2013-05-23 15:29:00,
2013-05-23 11:34:00,72.3,66.8,29.91,SSE,158,0.0,4.0,83,0.00,,,0.01,HR-IXPWINDi_r2_v1.2.,2013-05-23 15:34:00,
2013-05-23 11:39:00,72.6,67.1,29.91,SSE,148,0.0,4.0,83,0.00,,,0.01,HR-IXPWINDi_r2_v1.2.,2013-05-23 15:39:00,
2013-05-23 11:45:00,72.8,66.9,29.91,SSE,148,0.0,4.0,82,0.00,,,0.01,HR-IXPWINDi_r2_v1.2.,2013-05-23 15:45:00,
2013-05-23 11:50:00,72.9,67.7,29.91,SSE,148,0.0,3.0,84,0.00,,,0.01,HR-IXPWINDi_r2_v1.2.,2013-05-23 15:50:00,
2013-05-23 11:55:00,72.7,67.9,29.91,SE,144,0.0,2.0,85,0.00,,,0.01,HR-IXPWINDi_r2_v1.2.,2013-05-23 15:55:00,
2013-05-23 12:00:00,72.7,66.5,29.91,SSE,155,0.0,3.0,81,0.00,,,0.01,HR-IXPWINDi_r2_v1.2.,2013-05-23 16:00:00,
2013-05-23 12:05:00,72.9,68.4,29.91,SSE,155,0.0,3.0,86,0.00,,,0.01,HR-IXPWINDi_r2_v1.2.,2013-05-23 16:05:00,
2013-05-23 12:10:00,73.0,66.8,29.91,SSE,161,0.0,5.0,81,0.00,,,0.01,HR-IXPWINDi_r2_v1.2.,2013-05-23 16:10:00,
2013-05-23 12:15:00,73.3,67.8,29.90,South,185,0.0,5.0,83,0.00,,,0.01,HR-IXPWINDi_r2_v1.2.,2013-05-23 16:15:00,
2013-05-23 12:21:00,73.5,68.7,29.90,South,185,0.0,3.0,85,0.00,,,0.01,HR-IXPWINDi_r2_v1.2.,2013-05-23 16:21:00,
2013-05-23 12:26:00,74.1,68.2,29.90,SSE,154,0.0,2.0,82,0.00,,,0.01,HR-IXPWINDi_r2_v1.2.,2013-05-23 16:26:00,
2013-05-23 12:32:00,74.6,67.2,29.90,NNE,21,0.0,3.0,78,0.00,,,0.01,HR-IXPWINDi_r2_v1.2.,2013-05-23 16:32:00,
2013-05-23 12:36:00,74.6,67.2,29.90,North,360,0.0,3.0,78,0.00,,,0.01,HR-IXPWINDi_r2_v1.2.,2013-05-23 16:36:00,
2013-05-23 12:42:00,74.8,68.2,29.90,SSE,161,1.0,3.0,80,0.00,,,0.01,HR-IXPWINDi_r2_v1.2.,2013-05-23 16:42:00,
2013-05-23 12:47:00,74.8,67.4,29.90,ENE,74,0.0,6.0,78,0.00,,,0.01,HR-IXPWINDi_r2_v1.2.,2013-05-23 16:47:00,
2013-05-23 12:52:00,74.7,66.6,29.89,SSE,167,0.0,6.0,76,0.00,,,0.01,HR-IXPWINDi_r2_v1.2.,2013-05-23 16:52:00,
2013-05-23 12:57:00,74.4,66.7,29.89,East,82,1.0,5.0,77,0.00,,,0.01,HR-IXPWINDi_r2_v1.2.,2013-05-23 16:57:00,
2013-05-23 13:02:00,73.9,65.4,29.89,ENE,73,1.0,3.0,75,0.00,,,0.01,HR-IXPWINDi_r2_v1.2.,2013-05-23 17:02:00,
2013-05-23 13:07:00,73.5,66.9,29.89,ENE,73,0.0,2.0,80,0.00,,,0.01,HR-IXPWINDi_r2_v1.2.,2013-05-23 17:07:00,
2013-05-23 13:12:00,73.4,65.7,29.89,ENE,59,0.0,3.0,77,0.00,,,0.01,HR-IXPWINDi_r2_v1.2.,2013-05-23 17:12:00,
2013-05-23 13:18:00,73.5,65.8,29.89,SSE,167,0.0,5.0,77,0.00,,,0.01,HR-IXPWINDi_r2_v1.2.,2013-05-23 17:18:00,
2013-05-23 13:23:00,73.7,66.7,29.89,SSE,163,0.0,5.0,79,0.00,,,0.01,HR-IXPWINDi_r2_v1.2.,2013-05-23 17:23:00,
2013-05-23 13:28:00,73.9,67.6,29.89,SSE,163,0.0,2.0,81,0.00,,,0.01,HR-IXPWINDi_r2_v1.2.,2013-05-23 17:28:00,
2013-05-23 13:33:00,74.0,68.1,29.89,SSE,163,0.0,2.0,82,0.00,,,0.01,HR-IXPWINDi_r2_v1.2.,2013-05-23 17:33:00,
2013-05-23 13:38:00,74.2,67.6,29.88,SSE,163,0.0,1.0,80,0.00,,,0.01,HR-IXPWINDi_r2_v1.2.,2013-05-23 17:38:00,
2013-05-23 13:43:00,74.6,66.5,29.88,South,171,0.0,4.0,76,0.00,,,0.01,HR-IXPWINDi_r2_v1.2.,2013-05-23 17:43:00,
2013-05-23 13:48:00,75.1,68.4,29.88,SSE,155,0.0,4.0,80,0.00,,,0.01,HR-IXPWINDi_r2_v1.2.,2013-05-23 17:48:00,
2013-05-23 13:54:00,75.5,67.7,29.88,SSE,155,0.0,2.0,77,0.00,,,0.01,HR-IXPWINDi_r2_v1.2.,2013-05-23 17:54:00,
2013-05-23 13:59:00,75.5,66.2,29.87,SSE,155,0.0,1.0,73,0.00,,,0.01,HR-IXPWINDi_r2_v1.2.,2013-05-23 17:59:00,
2013-05-23 14:04:00,75.6,67.8,29.87,SSE,155,0.0,1.0,77,0.00,,,0.01,HR-IXPWINDi_r2_v1.2.,2013-05-23 18:04:00,
2013-05-23 14:09:00,75.8,67.3,29.87,SSE,155,0.0,1.0,75,0.00,,,0.01,HR-IXPWINDi_r2_v1.2.,2013-05-23 18:09:00,
2013-05-23 14:15:00,76.0,67.1,29.87,SSE,155,1.0,2.0,74,0.00,,,0.01,HR-IXPWINDi_r2_v1.2.,2013-05-23 18:15:00,
2013-05-23 14:20:00,76.0,67.4,29.86,SSE,155,0.0,2.0,75,0.00,,,0.01,HR-IXPWINDi_r2_v1.2.,2013-05-23 18:20:00,
2013-05-23 14:26:00,76.2,68.4,29.86,SE,140,1.0,2.0,77,0.00,,,0.01,HR-IXPWINDi_r2_v1.2.,2013-05-23 18:26:00,
2013-05-23 14:31:00,76.6,66.4,29.86,ENE,76,1.0,6.0,71,0.00,,,0.01,HR-IXPWINDi_r2_v1.2.,2013-05-23 18:31:00,
2013-05-23 14:36:00,77.3,65.9,29.85,ENE,63,0.0,6.0,68,0.00,,,0.01,HR-IXPWINDi_r2_v1.2.,2013-05-23 18:36:00,
2013-05-23 14:41:00,77.7,66.7,29.85,ENE,63,1.0,3.0,69,0.00,,,0.01,HR-IXPWINDi_r2_v1.2.,2013-05-23 18:41:00,
2013-05-23 14:46:00,77.8,65.9,29.85,ENE,63,0.0,2.0,67,0.00,,,0.01,HR-IXPWINDi_r2_v1.2.,2013-05-23 18:46:00,
2013-05-23 14:51:00,78.0,66.1,29.84,ENE,59,0.0,3.0,67,0.00,,,0.01,HR-IXPWINDi_r2_v1.2.,2013-05-23 18:51:00,
2013-05-23 14:56:00,78.5,67.0,29.84,South,175,0.0,3.0,68,0.00,,,0.01,HR-IXPWINDi_r2_v1.2.,2013-05-23 18:56:00,
2013-05-23 15:01:00,79.2,67.7,29.83,NNE,13,2.0,3.0,68,0.00,,,0.01,HR-IXPWINDi_r2_v1.2.,2013-05-23 19:01:00,
2013-05-23 15:06:00,79.6,64.9,29.83,NNE,15,1.0,4.0,61,0.00,,,0.01,HR-IXPWINDi_r2_v1.2.,2013-05-23 19:06:00,
2013-05-23 15:12:00,79.3,64.2,29.83,NNE,30,0.0,6.0,60,0.00,,,0.01,HR-IXPWINDi_r2_v1.2.,2013-05-23 19:12:00,
2013-05-23 15:17:00,79.4,65.2,29.83,ENE,61,0.0,6.0,62,0.00,,,0.01,HR-IXPWINDi_r2_v1.2.,2013-05-23 19:17:00,
2013-05-23 15:22:00,79.9,67.0,29.83,East,86,3.0,5.0,65,0.00,,,0.01,HR-IXPWINDi_r2_v1.2.,2013-05-23 19:22:00,
2013-05-23 15:27:00,80.0,65.3,29.83,ENE,59,2.0,6.0,61,0.00,,,0.01,HR-IXPWINDi_r2_v1.2.,2013-05-23 19:27:00,
2013-05-23 15:32:00,79.2,65.0,29.83,SSE,159,1.0,6.0,62,0.00,,,0.01,HR-IXPWINDi_r2_v1.2.,2013-05-23 19:32:00,
2013-05-23 15:37:00,78.9,64.7,29.82,North,5,2.0,6.0,62,0.00,,,0.01,HR-IXPWINDi_r2_v1.2.,2013-05-23 19:37:00,
2013-05-23 15:42:00,79.0,63.9,29.82,NE,42,2.0,6.0,60,0.00,,,0.01,HR-IXPWINDi_r2_v1.2.,2013-05-23 19:42:00,
2013-05-23 15:47:00,79.1,65.8,29.82,NNE,28,0.0,5.0,64,0.00,,,0.01,HR-IXPWINDi_r2_v1.2.,2013-05-23 19:47:00,
2013-05-23 15:53:00,79.1,64.9,29.81,ENE,59,0.0,3.0,62,0.00,,,0.01,HR-IXPWINDi_r2_v1.2.,2013-05-23 19:53:00,
2013-05-23 15:58:00,79.2,66.4,29.81,NE,51,1.0,3.0,65,0.00,,,0.01,HR-IXPWINDi_r2_v1.2.,2013-05-23 19:58:00,
2013-05-23 16:03:00,79.7,67.3,29.81,NNE,30,4.0,5.0,66,0.00,,,0.01,HR-IXPWINDi_r2_v1.2.,2013-05-23 20:03:00,
2013-05-23 16:08:00,79.6,65.8,29.81,NNE,30,0.0,5.0,63,0.00,,,0.01,HR-IXPWINDi_r2_v1.2.,2013-05-23 20:08:00,
2013-05-23 16:13:00,79.8,65.6,29.80,SSE,166,0.0,6.0,62,0.00,,,0.01,HR-IXPWINDi_r2_v1.2.,2013-05-23 20:13:00,
2013-05-23 16:18:00,80.1,66.3,29.80,SSE,166,0.0,6.0,63,0.00,,,0.01,HR-IXPWINDi_r2_v1.2.,2013-05-23 20:18:00,
2013-05-23 16:24:00,80.6,65.4,29.80,East,92,0.0,3.0,60,0.00,,,0.01,HR-IXPWINDi_r2_v1.2.,2013-05-23 20:24:00,
2013-05-23 16:29:00,80.9,66.1,29.80,South,187,1.0,4.0,61,0.00,,,0.01,HR-IXPWINDi_r2_v1.2.,2013-05-23 20:29:00,
2013-05-23 16:34:00,81.2,65.5,29.80,ESE,119,0.0,4.0,59,0.00,,,0.01,HR-IXPWINDi_r2_v1.2.,2013-05-23 20:34:00,
2013-05-23 16:39:00,81.1,65.9,29.80,South,190,0.0,3.0,60,0.00,,,0.01,HR-IXPWINDi_r2_v1.2.,2013-05-23 20:39:00,
2013-05-23 16:45:00,80.5,63.8,29.80,SSE,161,0.0,3.0,57,0.00,,,0.01,HR-IXPWINDi_r2_v1.2.,2013-05-23 20:45:00,
2013-05-23 16:50:00,80.5,63.3,29.80,SSE,159,0.0,3.0,56,0.00,,,0.01,HR-IXPWINDi_r2_v1.2.,2013-05-23 20:50:00,
2013-05-23 16:55:00,80.5,65.8,29.79,SSE,159,1.0,3.0,61,0.00,,,0.01,HR-IXPWINDi_r2_v1.2.,2013-05-23 20:55:00,
2013-05-23 17:01:00,80.0,64.8,29.79,ENE,78,4.0,4.0,60,0.00,,,0.01,HR-IXPWINDi_r2_v1.2.,2013-05-23 21:01:00,
2013-05-23 17:06:00,79.7,64.1,29.79,SSE,167,0.0,4.0,59,0.00,,,0.01,HR-IXPWINDi_r2_v1.2.,2013-05-23 21:06:00,
2013-05-23 17:11:00,79.6,61.4,29.79,SSE,167,0.0,4.0,54,0.00,,,0.01,HR-IXPWINDi_r2_v1.2.,2013-05-23 21:11:00,
2013-05-23 17:16:00,79.1,64.4,29.79,East,84,0.0,3.0,61,0.00,,,0.01,HR-IXPWINDi_r2_v1.2.,2013-05-23 21:16:00,
2013-05-23 17:22:00,78.9,63.3,29.79,East,84,0.0,3.0,59,0.00,,,0.01,HR-IXPWINDi_r2_v1.2.,2013-05-23 21:22:00,
2013-05-23 17:27:00,79.1,63.5,29.79,East,84,0.0,2.0,59,0.00,,,0.01,HR-IXPWINDi_r2_v1.2.,2013-05-23 21:27:00,
2013-05-23 17:32:00,79.2,65.5,29.79,East,84,0.0,1.0,63,0.00,,,0.01,HR-IXPWINDi_r2_v1.2.,2013-05-23 21:32:00,
2013-05-23 17:37:00,79.3,63.7,29.80,East,84,0.0,1.0,59,0.00,,,0.01,HR-IXPWINDi_r2_v1.2.,2013-05-23 21:37:00,
2013-05-23 17:42:00,79.4,64.3,29.79,SE,138,0.0,2.0,60,0.00,,,0.01,HR-IXPWINDi_r2_v1.2.,2013-05-23 21:42:00,
2013-05-23 17:47:00,79.5,63.4,29.80,SSW,193,0.0,2.0,58,0.00,,,0.01,HR-IXPWINDi_r2_v1.2.,2013-05-23 21:47:00,
2013-05-23 17:52:00,79.5,62.4,29.80,SSW,193,0.0,4.0,56,0.00,,,0.01,HR-IXPWINDi_r2_v1.2.,2013-05-23 21:52:00,
2013-05-23 17:58:00,79.3,63.7,29.79,SSW,194,0.0,4.0,59,0.00,,,0.01,HR-IXPWINDi_r2_v1.2.,2013-05-23 21:58:00,
2013-05-23 18:03:00,78.9,64.7,29.79,SSW,194,0.0,2.0,62,0.00,,,0.01,HR-IXPWINDi_r2_v1.2.,2013-05-23 22:03:00,
2013-05-23 18:08:00,78.3,63.7,29.79,SSW,194,0.0,2.0,61,0.00,,,0.01,HR-IXPWINDi_r2_v1.2.,2013-05-23 22:08:00,
2013-05-23 18:13:00,78.1,63.5,29.79,SSW,194,0.0,1.0,61,0.00,,,0.01,HR-IXPWINDi_r2_v1.2.,2013-05-23 22:13:00,
2013-05-23 18:18:00,78.0,62.0,29.79,South,175,0.0,3.0,58,0.00,,,0.01,HR-IXPWINDi_r2_v1.2.,2013-05-23 22:18:00,
2013-05-23 18:23:00,77.9,64.2,29.79,South,175,0.0,3.0,63,0.00,,,0.01,HR-IXPWINDi_r2_v1.2.,2013-05-23 22:23:00,
2013-05-23 18:28:00,77.6,65.7,29.79,South,175,0.0,0.0,67,0.00,,,0.01,HR-IXPWINDi_r2_v1.2.,2013-05-23 22:28:00,
2013-05-23 18:33:00,77.3,65.9,29.78,South,175,0.0,0.0,68,0.00,,,0.01,HR-IXPWINDi_r2_v1.2.,2013-05-23 22:33:00,
2013-05-23 18:39:00,77.1,67.3,29.78,South,175,0.0,0.0,72,0.00,,,0.01,HR-IXPWINDi_r2_v1.2.,2013-05-23 22:39:00,
2013-05-23 18:44:00,76.9,67.1,29.78,South,175,0.0,0.0,72,0.00,,,0.01,HR-IXPWINDi_r2_v1.2.,2013-05-23 22:44:00,
2013-05-23 18:49:00,76.7,66.5,29.78,South,175,0.0,1.0,71,0.00,,,0.01,HR-IXPWINDi_r2_v1.2.,2013-05-23 22:49:00,
2013-05-23 18:54:00,76.4,66.2,29.77,South,175,0.0,1.0,71,0.00,,,0.01,HR-IXPWINDi_r2_v1.2.,2013-05-23 22:54:00,
2013-05-23 19:00:00,76.1,66.4,29.77,East,101,2.0,5.0,72,0.00,,,0.01,HR-IXPWINDi_r2_v1.2.,2013-05-23 23:00:00,
2013-05-23 19:05:00,75.7,66.4,29.78,South,184,0.0,5.0,73,0.00,,,0.01,HR-IXPWINDi_r2_v1.2.,2013-05-23 23:05:00,
2013-05-23 19:10:00,75.4,66.1,29.78,ESE,118,1.0,3.0,73,0.00,,,0.01,HR-IXPWINDi_r2_v1.2.,2013-05-23 23:10:00,
2013-05-23 19:16:00,75.1,66.2,29.79,South,177,2.0,3.0,74,0.00,,,0.01,HR-IXPWINDi_r2_v1.2.,2013-05-23 23:16:00,
2013-05-23 19:21:00,74.4,63.5,29.84,ENE,75,5.0,9.0,69,0.00,,,0.01,HR-IXPWINDi_r2_v1.2.,2013-05-23 23:21:00,
2013-05-23 19:26:00,71.5,63.5,29.84,North,360,4.0,20.0,76,1.02,,,0.07,HR-IXPWINDi_r2_v1.2.,2013-05-23 23:26:00,
2013-05-23 19:31:00,67.8,62.4,29.83,ENE,74,1.0,20.0,83,0.73,,,0.17,HR-IXPWINDi_r2_v1.2.,2013-05-23 23:31:00,
2013-05-23 19:36:00,65.7,61.7,29.82,NE,37,0.0,8.0,87,0.25,,,0.19,HR-IXPWINDi_r2_v1.2.,2013-05-23 23:36:00,
2013-05-23 19:41:00,64.7,61.6,29.82,ESE,117,0.0,8.0,90,0.12,,,0.20,HR-IXPWINDi_r2_v1.2.,2013-05-23 23:41:00,
2013-05-23 19:46:00,64.1,61.7,29.81,NE,55,1.0,3.0,92,0.08,,,0.20,HR-IXPWINDi_r2_v1.2.,2013-05-23 23:46:00,
2013-05-23 19:51:00,63.7,61.6,29.81,North,9,2.0,4.0,93,0.05,,,0.20,HR-IXPWINDi_r2_v1.2.,2013-05-23 23:51:00,
2013-05-23 19:57:00,63.6,61.5,29.80,ENE,71,0.0,4.0,93,0.00,,,0.20,HR-IXPWINDi_r2_v1.2.,2013-05-23 23:57:00,
2013-05-23 20:02:00,63.5,61.7,29.80,East,87,0.0,5.0,94,0.00,,,0.20,HR-IXPWINDi_r2_v1.2.,2013-05-24 00:02:00,
2013-05-23 20:07:00,63.5,61.4,29.81,ENE,77,0.0,5.0,93,0.00,,,0.20,HR-IXPWINDi_r2_v1.2.,2013-05-24 00:07:00,
2013-05-23 20:12:00,63.5,61.4,29.81,SSE,157,0.0,4.0,93,0.00,,,0.20,HR-IXPWINDi_r2_v1.2.,2013-05-24 00:12:00,
2013-05-23 20:18:00,63.5,61.1,29.81,East,80,2.0,4.0,92,0.00,,,0.20,HR-IXPWINDi_r2_v1.2.,2013-05-24 00:18:00,
2013-05-23 20:23:00,63.5,61.1,29.81,SSE,151,0.0,5.0,92,0.00,,,0.20,HR-IXPWINDi_r2_v1.2.,2013-05-24 00:23:00,
2013-05-23 20:28:00,63.5,61.1,29.82,ENE,78,0.0,5.0,92,0.00,,,0.20,HR-IXPWINDi_r2_v1.2.,2013-05-24 00:28:00,
2013-05-23 20:34:00,63.5,61.1,29.82,North,5,0.0,3.0,92,0.00,,,0.21,HR-IXPWINDi_r2_v1.2.,2013-05-24 00:34:00,
2013-05-23 20:39:00,63.4,61.3,29.82,WNW,285,0.0,1.0,93,0.00,,,0.21,HR-IXPWINDi_r2_v1.2.,2013-05-24 00:39:00,
2013-05-23 20:44:00,63.3,61.2,29.84,SSE,163,4.0,4.0,93,0.00,,,0.21,HR-IXPWINDi_r2_v1.2.,2013-05-24 00:44:00,
2013-05-23 20:49:00,63.4,61.3,29.85,ESE,121,0.0,5.0,93,0.00,,,0.21,HR-IXPWINDi_r2_v1.2.,2013-05-24 00:49:00,
2013-05-23 20:54:00,63.4,61.0,29.85,SSE,166,0.0,5.0,92,0.00,,,0.21,HR-IXPWINDi_r2_v1.2.,2013-05-24 00:54:00,
2013-05-23 20:59:00,63.4,61.3,29.86,SSE,166,0.0,5.0,93,0.00,,,0.21,HR-IXPWINDi_r2_v1.2.,2013-05-24 00:59:00,
2013-05-23 21:05:00,63.4,61.3,29.86,SSE,165,0.0,2.0,93,0.00,,,0.21,HR-IXPWINDi_r2_v1.2.,2013-05-24 01:05:00,
2013-05-23 21:10:00,63.4,61.6,29.85,SSE,164,0.0,2.0,94,0.00,,,0.21,HR-IXPWINDi_r2_v1.2.,2013-05-24 01:10:00,
2013-05-23 21:15:00,63.4,61.6,29.85,SSE,165,0.0,0.0,94,0.00,,,0.21,HR-IXPWINDi_r2_v1.2.,2013-05-24 01:15:00,
2013-05-23 21:20:00,63.3,61.8,29.86,SSE,164,0.0,1.0,95,0.00,,,0.21,HR-IXPWINDi_r2_v1.2.,2013-05-24 01:20:00,
2013-05-23 21:25:00,63.2,61.7,29.86,SSE,165,0.0,1.0,95,0.00,,,0.21,HR-IXPWINDi_r2_v1.2.,2013-05-24 01:25:00,
2013-05-23 21:30:00,63.1,61.6,29.86,ESE,110,0.0,3.0,95,0.00,,,0.21,HR-IXPWINDi_r2_v1.2.,2013-05-24 01:30:00,
2013-05-23 21:36:00,63.0,61.8,29.86,ESE,109,0.0,3.0,96,0.00,,,0.21,HR-IXPWINDi_r2_v1.2.,2013-05-24 01:36:00,
2013-05-23 21:41:00,62.9,61.4,29.86,ESE,109,0.0,2.0,95,0.00,,,0.21,HR-IXPWINDi_r2_v1.2.,2013-05-24 01:41:00,
2013-05-23 21:46:00,62.8,61.3,29.87,South,180,0.0,3.0,95,0.00,,,0.21,HR-IXPWINDi_r2_v1.2.,2013-05-24 01:46:00,
2013-05-23 21:51:00,62.8,61.0,29.87,SSW,212,0.0,3.0,94,0.00,,,0.21,HR-IXPWINDi_r2_v1.2.,2013-05-24 01:51:00,
2013-05-23 21:56:00,62.9,60.8,29.87,SSW,212,1.0,3.0,93,0.00,,,0.21,HR-IXPWINDi_r2_v1.2.,2013-05-24 01:56:00,
2013-05-23 22:01:00,63.0,60.9,29.87,SSW,212,1.0,2.0,93,0.00,,,0.21,HR-IXPWINDi_r2_v1.2.,2013-05-24 02:01:00,
2013-05-23 22:07:00,63.3,60.9,29.87,SE,143,3.0,7.0,92,0.00,,,0.21,HR-IXPWINDi_r2_v1.2.,2013-05-24 02:07:00,
2013-05-23 22:27:00,64.5,60.8,29.87,ESE,115,0.0,3.0,88,0.00,,,0.21,HR-IXPWINDi_r2_v1.2.,2013-05-24 02:27:00,
2013-05-23 22:32:00,64.6,60.9,29.87,SSE,148,0.0,3.0,88,0.00,,,0.21,HR-IXPWINDi_r2_v1.2.,2013-05-24 02:32:00,
2013-05-23 22:37:00,64.6,60.6,29.87,South,182,0.0,3.0,87,0.00,,,0.21,HR-IXPWINDi_r2_v1.2.,2013-05-24 02:37:00,
2013-05-23 22:42:00,64.6,60.9,29.87,South,189,0.0,4.0,88,0.00,,,0.21,HR-IXPWINDi_r2_v1.2.,2013-05-24 02:42:00,
2013-05-23 22:47:00,64.5,61.4,29.87,South,189,0.0,4.0,90,0.00,,,0.21,HR-IXPWINDi_r2_v1.2.,2013-05-24 02:47:00,
2013-05-23 22:52:00,64.3,61.2,29.87,South,189,0.0,1.0,90,0.00,,,0.21,HR-IXPWINDi_r2_v1.2.,2013-05-24 02:52:00,
2013-05-23 23:03:00,63.8,61.7,29.86,ESE,117,0.0,1.0,93,0.00,,,0.21,HR-IXPWINDi_r2_v1.2.,2013-05-24 03:03:00,
2013-05-23 23:08:00,63.5,61.4,29.86,ESE,117,0.0,1.0,93,0.00,,,0.21,HR-IXPWINDi_r2_v1.2.,2013-05-24 03:08:00,
2013-05-23 23:13:00,63.4,60.3,29.86,ESE,117,0.0,1.0,90,0.00,,,0.21,HR-IXPWINDi_r2_v1.2.,2013-05-24 03:13:00,
2013-05-23 23:18:00,63.5,60.4,29.86,ESE,123,0.0,2.0,90,0.00,,,0.21,HR-IXPWINDi_r2_v1.2.,2013-05-24 03:18:00,
2013-05-23 23:24:00,63.6,60.9,29.86,SE,126,0.0,3.0,91,0.00,,,0.21,HR-IXPWINDi_r2_v1.2.,2013-05-24 03:24:00,
2013-05-23 23:29:00,63.6,60.9,29.86,SE,128,0.0,3.0,91,0.00,,,0.21,HR-IXPWINDi_r2_v1.2.,2013-05-24 03:29:00,
2013-05-23 23:34:00,63.6,61.2,29.86,SE,128,0.0,2.0,92,0.00,,,0.21,HR-IXPWINDi_r2_v1.2.,2013-05-24 03:34:00,
2013-05-23 23:39:00,63.5,61.1,29.86,ENE,58,0.0,2.0,92,0.00,,,0.21,HR-IXPWINDi_r2_v1.2.,2013-05-24 03:39:00,
2013-05-23 23:44:00,63.4,60.3,29.86,ENE,58,0.0,2.0,90,0.00,,,0.21,HR-IXPWINDi_r2_v1.2.,2013-05-24 03:44:00,
2013-05-23 23:50:00,63.6,60.2,29.86,East,90,0.0,3.0,89,0.00,,,0.21,HR-IXPWINDi_r2_v1.2.,2013-05-24 03:50:00,
2013-05-23 23:55:00,63.8,60.1,29.86,East,92,3.0,3.0,88,0.00,,,0.21,HR-IXPWINDi_r2_v1.2.,2013-05-24 03:55:00,